Terminal Aerodrome Forecast
Issued by NWS

Home | Current Version | Previous Version | Graphics & Text | Print | Product List | Glossary On
Versions: 1 2 3 4 5 6 7 8 9 10 11 12 13
000
FTUS43 KICT 290520
TAFCNU
TAF
KCNU 290520Z 2906/3006 15014KT P6SM SCT250
     FM291300 18012KT P6SM BKN100
     FM291500 23012KT P6SM SCT100 BKN200
     FM291900 33014G22KT P6SM SKC
     FM300000 36008KT P6SM SKC=

USA.gov is the U.S. government's official web portal to all federal, state and local government web resources and services.